sensor_id;sensor_type;location;lat;lon;timestamp;P1;durP1;ratioP1;P2;durP2;ratioP2
61407;SDS011;47274;43.054;25.146;2023-02-17T12:36:37;12.30;;;5.50;;
61407;SDS011;47274;43.054;25.146;2023-02-17T12:42:10;12.10;;;5.38;;
61407;SDS011;47274;43.054;25.146;2023-02-17T12:45:04;13.07;;;5.32;;
61407;SDS011;47274;43.054;25.146;2023-02-17T12:50:31;14.57;;;6.13;;
61407;SDS011;47274;43.054;25.146;2023-02-17T12:59:09;19.73;;;8.65;;
61407;SDS011;47274;43.054;25.146;2023-02-17T13:01:41;13.93;;;5.50;;
61407;SDS011;47274;43.054;25.146;2023-02-17T13:04:16;17.30;;;7.18;;
61407;SDS011;47274;43.054;25.146;2023-02-17T13:06:45;16.23;;;6.93;;
61407;SDS011;47274;43.054;25.146;2023-02-17T13:09:23;17.05;;;6.40;;
61407;SDS011;47274;43.054;25.146;2023-02-17T13:12:05;16.40;;;6.55;;
61407;SDS011;47274;43.054;25.146;2023-02-17T13:14:44;17.02;;;6.40;;
61407;SDS011;47274;43.054;25.146;2023-02-17T13:17:26;16.50;;;6.78;;
61407;SDS011;47274;43.054;25.146;2023-02-17T13:20:06;17.38;;;7.10;;
61407;SDS011;47274;43.054;25.146;2023-02-17T13:22:32;18.83;;;9.50;;
61407;SDS011;47274;43.054;25.146;2023-02-17T13:24:59;19.33;;;8.05;;
61407;SDS011;47274;43.054;25.146;2023-02-17T13:32:46;16.02;;;6.53;;
61407;SDS011;47274;43.054;25.146;2023-02-17T13:37:53;14.38;;;5.78;;
61407;SDS011;47274;43.054;25.146;2023-02-17T13:42:47;14.25;;;5.78;;
61407;SDS011;47274;43.054;25.146;2023-02-17T13:45:24;16.63;;;6.00;;
61407;SDS011;47274;43.054;25.146;2023-02-17T13:47:53;13.93;;;5.60;;
61407;SDS011;47274;43.054;25.146;2023-02-17T13:52:52;17.48;;;6.30;;
61407;SDS011;47274;43.054;25.146;2023-02-17T13:55:20;15.75;;;5.70;;
61407;SDS011;47274;43.054;25.146;2023-02-17T13:57:50;24.75;;;9.02;;
61407;SDS011;47274;43.054;25.146;2023-02-17T14:00:23;17.85;;;6.60;;
61407;SDS011;47274;43.054;25.146;2023-02-17T14:02:56;16.30;;;6.60;;
61407;SDS011;47274;43.054;25.146;2023-02-17T14:05:44;18.48;;;6.18;;
61407;SDS011;47274;43.054;25.146;2023-02-17T14:08:13;18.48;;;7.90;;
61407;SDS011;47274;43.054;25.146;2023-02-17T14:10:50;19.88;;;8.18;;
61407;SDS011;47274;43.054;25.146;2023-02-17T14:13:18;19.30;;;8.15;;
61407;SDS011;47274;43.054;25.146;2023-02-17T14:15:48;22.73;;;10.73;;
61407;SDS011;47274;43.054;25.146;2023-02-17T14:18:24;22.20;;;9.73;;
61407;SDS011;47274;43.054;25.146;2023-02-17T14:23:50;24.42;;;11.93;;
61407;SDS011;47274;43.054;25.146;2023-02-17T14:29:02;21.58;;;10.60;;
61407;SDS011;47274;43.054;25.146;2023-02-17T14:31:41;21.27;;;10.05;;
61407;SDS011;47274;43.054;25.146;2023-02-17T14:34:33;21.10;;;8.90;;
61407;SDS011;47274;43.054;25.146;2023-02-17T14:37:07;18.58;;;7.72;;
61407;SDS011;47274;43.054;25.146;2023-02-17T14:39:52;18.00;;;6.90;;
61407;SDS011;47274;43.054;25.146;2023-02-17T14:42:19;19.35;;;8.25;;
61407;SDS011;47274;43.054;25.146;2023-02-17T14:44:45;18.38;;;8.75;;
61407;SDS011;47274;43.054;25.146;2023-02-17T14:47:11;18.60;;;7.78;;
61407;SDS011;47274;43.054;25.146;2023-02-17T14:49:37;19.15;;;7.22;;
61407;SDS011;47274;43.054;25.146;2023-02-17T14:52:19;17.60;;;6.95;;
61407;SDS011;47274;43.054;25.146;2023-02-17T14:54:46;17.00;;;6.85;;
61407;SDS011;47274;43.054;25.146;2023-02-17T14:57:13;17.98;;;7.72;;
61407;SDS011;47274;43.054;25.146;2023-02-17T14:59:40;20.48;;;9.25;;
61407;SDS011;47274;43.054;25.146;2023-02-17T15:02:15;20.52;;;8.80;;
61407;SDS011;47274;43.054;25.146;2023-02-17T15:04:46;21.73;;;9.50;;
61407;SDS011;47274;43.054;25.146;2023-02-17T15:07:14;20.67;;;9.85;;
61407;SDS011;47274;43.054;25.146;2023-02-17T15:09:43;21.13;;;8.98;;
61407;SDS011;47274;43.054;25.146;2023-02-17T15:12:20;21.88;;;9.57;;
61407;SDS011;47274;43.054;25.146;2023-02-17T15:14:49;19.65;;;8.55;;
61407;SDS011;47274;43.054;25.146;2023-02-17T15:17:15;23.35;;;10.57;;
61407;SDS011;47274;43.054;25.146;2023-02-17T15:19:41;22.80;;;10.77;;
61407;SDS011;47274;43.054;25.146;2023-02-17T15:22:13;21.38;;;9.57;;
61407;SDS011;47274;43.054;25.146;2023-02-17T15:24:39;22.73;;;9.98;;
61407;SDS011;47274;43.054;25.146;2023-02-17T15:27:05;23.80;;;11.00;;
61407;SDS011;47274;43.054;25.146;2023-02-17T15:29:33;21.40;;;8.88;;
61407;SDS011;47274;43.054;25.146;2023-02-17T15:32:01;21.20;;;8.15;;
61407;SDS011;47274;43.054;25.146;2023-02-17T15:34:32;19.42;;;8.48;;
61407;SDS011;47274;43.054;25.146;2023-02-17T15:37:02;22.05;;;9.20;;
61407;SDS011;47274;43.054;25.146;2023-02-17T15:39:31;19.30;;;8.52;;
61407;SDS011;47274;43.054;25.146;2023-02-17T15:42:06;18.15;;;7.65;;
61407;SDS011;47274;43.054;25.146;2023-02-17T15:44:42;22.08;;;9.32;;
61407;SDS011;47274;43.054;25.146;2023-02-17T15:47:12;23.42;;;9.85;;
61407;SDS011;47274;43.054;25.146;2023-02-17T15:49:40;26.02;;;11.05;;
61407;SDS011;47274;43.054;25.146;2023-02-17T15:52:10;23.75;;;10.57;;
61407;SDS011;47274;43.054;25.146;2023-02-17T15:54:41;21.95;;;9.50;;
61407;SDS011;47274;43.054;25.146;2023-02-17T15:57:18;22.02;;;9.98;;
61407;SDS011;47274;43.054;25.146;2023-02-17T15:59:51;20.90;;;8.85;;
61407;SDS011;47274;43.054;25.146;2023-02-17T16:02:24;19.45;;;8.48;;
61407;SDS011;47274;43.054;25.146;2023-02-17T16:04:51;21.50;;;9.40;;
61407;SDS011;47274;43.054;25.146;2023-02-17T16:07:18;16.48;;;7.40;;
61407;SDS011;47274;43.054;25.146;2023-02-17T16:09:43;18.50;;;8.60;;
61407;SDS011;47274;43.054;25.146;2023-02-17T16:12:14;19.95;;;8.30;;
61407;SDS011;47274;43.054;25.146;2023-02-17T16:14:56;20.55;;;9.45;;
61407;SDS011;47274;43.054;25.146;2023-02-17T16:17:22;20.65;;;8.77;;
61407;SDS011;47274;43.054;25.146;2023-02-17T16:19:51;19.58;;;8.95;;
61407;SDS011;47274;43.054;25.146;2023-02-17T16:22:17;18.77;;;7.82;;
61407;SDS011;47274;43.054;25.146;2023-02-17T16:24:44;17.35;;;7.78;;
61407;SDS011;47274;43.054;25.146;2023-02-17T16:27:19;17.27;;;6.97;;
61407;SDS011;47274;43.054;25.146;2023-02-17T16:29:45;20.88;;;9.68;;
61407;SDS011;47274;43.054;25.146;2023-02-17T16:32:13;20.48;;;9.10;;
61407;SDS011;47274;43.054;25.146;2023-02-17T16:34:41;20.85;;;9.40;;
61407;SDS011;47274;43.054;25.146;2023-02-17T16:37:12;17.80;;;7.60;;
61407;SDS011;47274;43.054;25.146;2023-02-17T16:42:08;20.92;;;9.15;;
61407;SDS011;47274;43.054;25.146;2023-02-17T16:44:36;23.45;;;11.75;;
61407;SDS011;47274;43.054;25.146;2023-02-17T16:47:02;23.55;;;11.85;;
61407;SDS011;47274;43.054;25.146;2023-02-17T16:49:32;23.23;;;11.15;;
61407;SDS011;47274;43.054;25.146;2023-02-17T16:52:15;19.15;;;8.63;;
61407;SDS011;47274;43.054;25.146;2023-02-17T16:54:52;17.73;;;8.35;;
61407;SDS011;47274;43.054;25.146;2023-02-17T16:57:20;20.15;;;9.82;;
61407;SDS011;47274;43.054;25.146;2023-02-17T16:59:48;20.30;;;9.13;;
61407;SDS011;47274;43.054;25.146;2023-02-17T17:02:16;20.00;;;10.10;;
61407;SDS011;47274;43.054;25.146;2023-02-17T17:04:47;19.67;;;9.40;;
61407;SDS011;47274;43.054;25.146;2023-02-17T17:07:13;16.05;;;7.35;;
61407;SDS011;47274;43.054;25.146;2023-02-17T17:09:42;16.63;;;7.55;;
61407;SDS011;47274;43.054;25.146;2023-02-17T17:12:09;19.17;;;9.70;;
61407;SDS011;47274;43.054;25.146;2023-02-17T17:14:37;16.95;;;7.70;;
61407;SDS011;47274;43.054;25.146;2023-02-17T17:17:03;17.45;;;8.07;;
61407;SDS011;47274;43.054;25.146;2023-02-17T17:19:31;19.38;;;8.55;;
61407;SDS011;47274;43.054;25.146;2023-02-17T17:22:01;19.00;;;7.80;;
61407;SDS011;47274;43.054;25.146;2023-02-17T17:24:29;20.83;;;9.55;;
61407;SDS011;47274;43.054;25.146;2023-02-17T17:26:56;18.23;;;7.75;;
61407;SDS011;47274;43.054;25.146;2023-02-17T17:29:22;22.17;;;10.18;;
61407;SDS011;47274;43.054;25.146;2023-02-17T17:31:49;42.20;;;18.48;;
61407;SDS011;47274;43.054;25.146;2023-02-17T17:34:17;31.77;;;13.88;;
61407;SDS011;47274;43.054;25.146;2023-02-17T17:36:45;31.98;;;14.38;;
61407;SDS011;47274;43.054;25.146;2023-02-17T17:39:17;38.65;;;16.98;;
61407;SDS011;47274;43.054;25.146;2023-02-17T17:41:48;43.55;;;19.13;;
61407;SDS011;47274;43.054;25.146;2023-02-17T17:44:15;43.70;;;19.63;;
61407;SDS011;47274;43.054;25.146;2023-02-17T17:46:47;44.47;;;19.38;;
61407;SDS011;47274;43.054;25.146;2023-02-17T17:49:14;37.20;;;15.05;;
61407;SDS011;47274;43.054;25.146;2023-02-17T17:51:42;31.80;;;14.97;;
61407;SDS011;47274;43.054;25.146;2023-02-17T17:54:11;33.85;;;16.85;;
61407;SDS011;47274;43.054;25.146;2023-02-17T17:56:39;32.67;;;15.45;;
61407;SDS011;47274;43.054;25.146;2023-02-17T17:59:07;28.67;;;13.83;;
61407;SDS011;47274;43.054;25.146;2023-02-17T18:01:35;31.02;;;15.20;;
61407;SDS011;47274;43.054;25.146;2023-02-17T18:04:01;28.77;;;13.45;;
61407;SDS011;47274;43.054;25.146;2023-02-17T18:06:29;25.75;;;11.95;;
61407;SDS011;47274;43.054;25.146;2023-02-17T18:09:01;25.80;;;10.82;;
61407;SDS011;47274;43.054;25.146;2023-02-17T18:11:32;22.75;;;10.30;;
61407;SDS011;47274;43.054;25.146;2023-02-17T18:14:03;24.33;;;10.97;;
61407;SDS011;47274;43.054;25.146;2023-02-17T18:16:34;19.60;;;7.72;;
61407;SDS011;47274;43.054;25.146;2023-02-17T18:19:01;18.65;;;7.78;;
61407;SDS011;47274;43.054;25.146;2023-02-17T18:21:28;20.30;;;8.43;;
61407;SDS011;47274;43.054;25.146;2023-02-17T18:23:58;19.05;;;8.20;;
61407;SDS011;47274;43.054;25.146;2023-02-17T18:26:24;18.73;;;8.20;;
61407;SDS011;47274;43.054;25.146;2023-02-17T18:28:50;19.92;;;8.35;;
61407;SDS011;47274;43.054;25.146;2023-02-17T18:31:17;20.50;;;9.27;;
61407;SDS011;47274;43.054;25.146;2023-02-17T18:33:44;21.88;;;9.75;;
61407;SDS011;47274;43.054;25.146;2023-02-17T18:36:14;19.48;;;8.23;;
61407;SDS011;47274;43.054;25.146;2023-02-17T18:38:45;19.17;;;8.07;;
61407;SDS011;47274;43.054;25.146;2023-02-17T18:41:19;20.97;;;8.83;;
61407;SDS011;47274;43.054;25.146;2023-02-17T18:43:50;23.50;;;11.30;;
61407;SDS011;47274;43.054;25.146;2023-02-17T18:46:17;21.47;;;9.00;;
61407;SDS011;47274;43.054;25.146;2023-02-17T18:48:46;25.33;;;12.23;;
61407;SDS011;47274;43.054;25.146;2023-02-17T18:51:14;23.58;;;11.13;;
61407;SDS011;47274;43.054;25.146;2023-02-17T18:53:44;26.40;;;13.63;;
61407;SDS011;47274;43.054;25.146;2023-02-17T18:56:15;28.47;;;14.77;;
61407;SDS011;47274;43.054;25.146;2023-02-17T18:58:50;32.45;;;17.88;;
61407;SDS011;47274;43.054;25.146;2023-02-17T19:03:52;27.60;;;13.23;;
61407;SDS011;47274;43.054;25.146;2023-02-17T19:06:23;25.63;;;12.97;;
61407;SDS011;47274;43.054;25.146;2023-02-17T19:08:52;25.37;;;12.23;;
61407;SDS011;47274;43.054;25.146;2023-02-17T19:11:20;23.23;;;11.40;;
61407;SDS011;47274;43.054;25.146;2023-02-17T19:13:48;23.27;;;10.95;;
61407;SDS011;47274;43.054;25.146;2023-02-17T19:16:18;21.37;;;10.10;;
61407;SDS011;47274;43.054;25.146;2023-02-17T19:18:47;23.70;;;11.47;;
61407;SDS011;47274;43.054;25.146;2023-02-17T19:21:13;22.33;;;10.13;;
61407;SDS011;47274;43.054;25.146;2023-02-17T19:23:41;20.73;;;9.38;;
61407;SDS011;47274;43.054;25.146;2023-02-17T19:26:11;21.40;;;9.27;;
61407;SDS011;47274;43.054;25.146;2023-02-17T19:28:41;22.37;;;10.63;;
61407;SDS011;47274;43.054;25.146;2023-02-17T19:31:22;20.43;;;9.50;;
61407;SDS011;47274;43.054;25.146;2023-02-17T19:33:48;19.67;;;8.60;;
61407;SDS011;47274;43.054;25.146;2023-02-17T19:36:15;18.23;;;8.50;;
61407;SDS011;47274;43.054;25.146;2023-02-17T19:38:45;22.13;;;9.53;;
61407;SDS011;47274;43.054;25.146;2023-02-17T19:41:12;19.30;;;8.33;;
61407;SDS011;47274;43.054;25.146;2023-02-17T19:43:39;21.07;;;9.27;;
61407;SDS011;47274;43.054;25.146;2023-02-17T19:46:06;25.60;;;9.10;;
61407;SDS011;47274;43.054;25.146;2023-02-17T19:48:34;20.73;;;9.07;;
61407;SDS011;47274;43.054;25.146;2023-02-17T19:51:01;20.27;;;8.30;;
61407;SDS011;47274;43.054;25.146;2023-02-17T19:53:30;19.30;;;7.90;;
61407;SDS011;47274;43.054;25.146;2023-02-17T19:56:09;20.40;;;8.77;;
61407;SDS011;47274;43.054;25.146;2023-02-17T19:58:44;20.40;;;8.90;;
61407;SDS011;47274;43.054;25.146;2023-02-17T20:03:40;20.20;;;8.57;;
61407;SDS011;47274;43.054;25.146;2023-02-17T20:06:07;20.87;;;9.13;;
61407;SDS011;47274;43.054;25.146;2023-02-17T20:08:36;21.57;;;8.90;;
61407;SDS011;47274;43.054;25.146;2023-02-17T20:11:04;18.47;;;8.23;;
61407;SDS011;47274;43.054;25.146;2023-02-17T20:13:38;19.53;;;8.40;;
61407;SDS011;47274;43.054;25.146;2023-02-17T20:16:07;19.27;;;8.30;;
61407;SDS011;47274;43.054;25.146;2023-02-17T20:18:44;17.83;;;7.60;;
61407;SDS011;47274;43.054;25.146;2023-02-17T20:21:21;20.10;;;8.67;;
61407;SDS011;47274;43.054;25.146;2023-02-17T20:23:51;18.77;;;8.10;;
61407;SDS011;47274;43.054;25.146;2023-02-17T20:26:19;20.03;;;8.30;;
61407;SDS011;47274;43.054;25.146;2023-02-17T20:28:54;18.53;;;7.83;;
61407;SDS011;47274;43.054;25.146;2023-02-17T20:31:21;20.57;;;8.37;;
61407;SDS011;47274;43.054;25.146;2023-02-17T20:33:48;18.53;;;8.60;;
61407;SDS011;47274;43.054;25.146;2023-02-17T20:36:14;19.23;;;8.30;;
61407;SDS011;47274;43.054;25.146;2023-02-17T20:38:43;18.97;;;8.33;;
61407;SDS011;47274;43.054;25.146;2023-02-17T20:41:10;19.60;;;8.33;;
61407;SDS011;47274;43.054;25.146;2023-02-17T20:43:39;20.17;;;8.50;;
61407;SDS011;47274;43.054;25.146;2023-02-17T20:46:05;19.40;;;8.53;;
61407;SDS011;47274;43.054;25.146;2023-02-17T20:48:33;18.93;;;8.43;;
61407;SDS011;47274;43.054;25.146;2023-02-17T20:50:59;18.97;;;8.10;;
61407;SDS011;47274;43.054;25.146;2023-02-17T20:53:31;21.53;;;9.13;;
61407;SDS011;47274;43.054;25.146;2023-02-17T20:55:59;20.87;;;9.27;;
61407;SDS011;47274;43.054;25.146;2023-02-17T20:58:27;19.13;;;8.07;;
61407;SDS011;47274;43.054;25.146;2023-02-17T21:00:57;19.10;;;8.47;;
61407;SDS011;47274;43.054;25.146;2023-02-17T21:03:22;18.77;;;7.87;;
61407;SDS011;47274;43.054;25.146;2023-02-17T21:05:48;18.97;;;8.00;;
61407;SDS011;47274;43.054;25.146;2023-02-17T21:08:15;21.27;;;8.83;;
61407;SDS011;47274;43.054;25.146;2023-02-17T21:10:44;20.87;;;8.93;;
61407;SDS011;47274;43.054;25.146;2023-02-17T21:13:10;19.47;;;8.60;;
61407;SDS011;47274;43.054;25.146;2023-02-17T21:15:36;19.43;;;8.07;;
61407;SDS011;47274;43.054;25.146;2023-02-17T21:18:02;20.23;;;8.60;;
61407;SDS011;47274;43.054;25.146;2023-02-17T21:20:30;20.23;;;9.20;;
61407;SDS011;47274;43.054;25.146;2023-02-17T21:22:57;19.77;;;8.77;;
61407;SDS011;47274;43.054;25.146;2023-02-17T21:25:25;19.30;;;8.67;;
61407;SDS011;47274;43.054;25.146;2023-02-17T21:27:52;20.17;;;8.40;;
61407;SDS011;47274;43.054;25.146;2023-02-17T21:30:20;21.67;;;9.30;;
61407;SDS011;47274;43.054;25.146;2023-02-17T21:32:47;19.23;;;8.53;;
61407;SDS011;47274;43.054;25.146;2023-02-17T21:35:13;20.23;;;9.23;;
61407;SDS011;47274;43.054;25.146;2023-02-17T21:37:39;19.47;;;8.90;;
61407;SDS011;47274;43.054;25.146;2023-02-17T21:40:07;20.80;;;8.73;;
61407;SDS011;47274;43.054;25.146;2023-02-17T21:42:37;19.53;;;8.90;;
61407;SDS011;47274;43.054;25.146;2023-02-17T21:45:24;19.60;;;8.47;;
61407;SDS011;47274;43.054;25.146;2023-02-17T21:47:50;19.73;;;8.37;;
61407;SDS011;47274;43.054;25.146;2023-02-17T21:50:16;19.33;;;8.87;;
61407;SDS011;47274;43.054;25.146;2023-02-17T21:52:43;20.03;;;8.50;;
61407;SDS011;47274;43.054;25.146;2023-02-17T21:55:10;19.30;;;8.30;;
61407;SDS011;47274;43.054;25.146;2023-02-17T21:57:36;19.73;;;8.33;;
61407;SDS011;47274;43.054;25.146;2023-02-17T22:00:02;18.90;;;8.40;;
61407;SDS011;47274;43.054;25.146;2023-02-17T22:02:37;21.63;;;9.20;;
61407;SDS011;47274;43.054;25.146;2023-02-17T22:05:03;19.60;;;8.43;;
61407;SDS011;47274;43.054;25.146;2023-02-17T22:07:30;20.03;;;8.80;;
61407;SDS011;47274;43.054;25.146;2023-02-17T22:10:00;19.93;;;8.67;;
61407;SDS011;47274;43.054;25.146;2023-02-17T22:12:28;18.50;;;7.93;;
61407;SDS011;47274;43.054;25.146;2023-02-17T22:14:54;17.67;;;7.50;;
61407;SDS011;47274;43.054;25.146;2023-02-17T22:17:21;19.80;;;8.20;;
61407;SDS011;47274;43.054;25.146;2023-02-17T22:19:47;18.53;;;8.43;;
61407;SDS011;47274;43.054;25.146;2023-02-17T22:22:13;19.67;;;8.17;;
61407;SDS011;47274;43.054;25.146;2023-02-17T22:24:40;19.40;;;8.70;;
61407;SDS011;47274;43.054;25.146;2023-02-17T22:27:06;18.60;;;8.37;;
61407;SDS011;47274;43.054;25.146;2023-02-17T22:29:32;18.20;;;8.03;;
61407;SDS011;47274;43.054;25.146;2023-02-17T22:31:58;18.60;;;8.10;;
61407;SDS011;47274;43.054;25.146;2023-02-17T22:34:27;18.43;;;7.83;;
61407;SDS011;47274;43.054;25.146;2023-02-17T22:36:54;20.93;;;8.30;;
61407;SDS011;47274;43.054;25.146;2023-02-17T22:39:20;20.73;;;8.50;;
61407;SDS011;47274;43.054;25.146;2023-02-17T22:41:46;17.73;;;7.50;;
61407;SDS011;47274;43.054;25.146;2023-02-17T22:44:13;19.77;;;8.07;;
61407;SDS011;47274;43.054;25.146;2023-02-17T22:46:40;16.67;;;7.63;;
61407;SDS011;47274;43.054;25.146;2023-02-17T22:49:07;18.73;;;7.27;;
61407;SDS011;47274;43.054;25.146;2023-02-17T22:51:34;17.83;;;8.07;;
61407;SDS011;47274;43.054;25.146;2023-02-17T22:54:02;14.90;;;6.63;;
61407;SDS011;47274;43.054;25.146;2023-02-17T22:56:30;17.93;;;7.17;;
61407;SDS011;47274;43.054;25.146;2023-02-17T22:58:56;17.70;;;7.23;;
61407;SDS011;47274;43.054;25.146;2023-02-17T23:01:25;16.90;;;6.77;;
61407;SDS011;47274;43.054;25.146;2023-02-17T23:03:53;16.00;;;7.10;;
61407;SDS011;47274;43.054;25.146;2023-02-17T23:08:51;17.17;;;6.57;;
61407;SDS011;47274;43.054;25.146;2023-02-17T23:11:22;17.70;;;6.93;;
61407;SDS011;47274;43.054;25.146;2023-02-17T23:14:08;14.13;;;6.47;;
61407;SDS011;47274;43.054;25.146;2023-02-17T23:16:36;18.63;;;6.73;;
61407;SDS011;47274;43.054;25.146;2023-02-17T23:19:08;17.63;;;6.53;;
61407;SDS011;47274;43.054;25.146;2023-02-17T23:21:36;17.10;;;6.50;;
61407;SDS011;47274;43.054;25.146;2023-02-17T23:24:03;16.13;;;6.60;;
61407;SDS011;47274;43.054;25.146;2023-02-17T23:26:29;15.00;;;6.00;;
61407;SDS011;47274;43.054;25.146;2023-02-17T23:28:55;15.93;;;6.43;;
61407;SDS011;47274;43.054;25.146;2023-02-17T23:31:21;18.00;;;7.00;;
61407;SDS011;47274;43.054;25.146;2023-02-17T23:33:48;36.57;;;17.50;;
61407;SDS011;47274;43.054;25.146;2023-02-17T23:36:14;24.93;;;9.83;;
61407;SDS011;47274;43.054;25.146;2023-02-17T23:38:39;34.73;;;16.17;;
61407;SDS011;47274;43.054;25.146;2023-02-17T23:41:05;32.63;;;14.53;;
61407;SDS011;47274;43.054;25.146;2023-02-17T23:43:31;36.87;;;16.23;;
61407;SDS011;47274;43.054;25.146;2023-02-17T23:45:57;33.33;;;15.23;;
61407;SDS011;47274;43.054;25.146;2023-02-17T23:48:24;28.57;;;13.00;;
61407;SDS011;47274;43.054;25.146;2023-02-17T23:50:56;22.07;;;10.17;;
61407;SDS011;47274;43.054;25.146;2023-02-17T23:53:24;24.47;;;11.20;;
61407;SDS011;47274;43.054;25.146;2023-02-17T23:56:03;22.47;;;9.33;;
61407;SDS011;47274;43.054;25.146;2023-02-17T23:58:40;19.87;;;8.53;;
